Time;durP1;ratioP1;P1;durP2;ratioP2;P2;SDS_P1;SDS_P2;PMS_P1;PMS_P2;Temp;Humidity;BMP_temperature;BMP_pressure;BME280_temperature;BME280_humidity;BME280_pressure;Samples;Min_cycle;Max_cycle;Signal;HPM_P1;HPM_P2
2024/01/24 00:01:24;;;;;;;15.48;9.98;;;7.20;96.70;;;;;;5081153;28;20106;-80
2024/01/24 00:03:56;;;;;;;17.88;10.63;;;7.20;96.70;;;;;;5083253;28;20079;-80
2024/01/24 00:06:26;;;;;;;16.80;9.65;;;7.20;96.70;;;;;;5066614;28;20062;-80
2024/01/24 00:08:55;;;;;;;13.55;9.18;;;7.10;96.70;;;;;;5067555;28;20080;-80
2024/01/24 00:11:24;;;;;;;14.65;9.57;;;7.00;96.70;;;;;;5077838;28;20066;-80
2024/01/24 00:13:53;;;;;;;18.17;13.55;;;7.00;96.70;;;;;;5085140;28;20083;-80
2024/01/24 00:16:21;;;;;;;20.58;15.07;;;7.00;96.70;;;;;;5079094;28;20135;-79
2024/01/24 00:18:51;;;;;;;21.83;14.07;;;7.00;96.70;;;;;;5079893;28;20496;-80
2024/01/24 00:21:22;;;;;;;16.45;12.32;;;6.90;96.70;;;;;;5083264;28;20105;-80
2024/01/24 00:23:51;;;;;;;16.75;12.32;;;6.90;96.70;;;;;;5074396;28;20055;-80
2024/01/24 00:26:21;;;;;;;18.60;11.50;;;6.90;96.70;;;;;;5078738;28;20056;-80
2024/01/24 00:28:50;;;;;;;18.83;12.18;;;6.90;96.70;;;;;;5087298;28;20044;-79
2024/01/24 00:31:18;;;;;;;18.45;12.27;;;6.90;96.70;;;;;;5081148;28;20052;-79
2024/01/24 00:33:48;;;;;;;16.60;10.60;;;6.80;96.70;;;;;;5066279;28;20056;-79
2024/01/24 00:36:17;;;;;;;19.65;11.05;;;6.70;96.70;;;;;;5062948;28;20536;-81
2024/01/24 00:38:48;;;;;;;14.38;9.98;;;6.80;96.70;;;;;;5075978;28;20059;-80
2024/01/24 00:41:17;;;;;;;16.77;10.27;;;6.80;96.70;;;;;;5081809;28;20117;-80
2024/01/24 00:43:46;;;;;;;16.10;11.32;;;6.80;96.70;;;;;;5082193;28;20044;-80
2024/01/24 00:46:15;;;;;;;18.08;11.02;;;6.90;96.70;;;;;;5083147;28;20798;-80
2024/01/24 00:48:43;;;;;;;16.38;10.68;;;6.90;96.70;;;;;;5084087;28;20074;-80
2024/01/24 00:51:11;;;;;;;16.38;11.63;;;6.80;96.70;;;;;;5080471;28;20687;-79
2024/01/24 00:53:44;;;;;;;18.67;10.20;;;6.80;96.70;;;;;;5079250;28;20092;-80
2024/01/24 00:56:14;;;;;;;16.42;9.20;;;6.70;96.70;;;;;;5079479;28;20075;-81
2024/01/24 00:58:43;;;;;;;19.15;10.93;;;6.70;96.70;;;;;;5075265;28;20136;-80
2024/01/24 01:01:12;;;;;;;17.08;9.57;;;6.60;96.70;;;;;;5073426;28;20625;-79
2024/01/24 01:03:43;;;;;;;15.27;8.85;;;6.60;96.70;;;;;;5080780;28;20056;-79
2024/01/24 01:06:12;;;;;;;10.90;7.75;;;6.60;96.70;;;;;;5073454;28;20060;-79
2024/01/24 01:08:43;;;;;;;13.20;8.95;;;6.60;96.70;;;;;;5088666;28;20104;-79
2024/01/24 01:11:18;;;;;;;12.48;8.50;;;6.60;96.70;;;;;;5075732;28;20056;-79
2024/01/24 01:14:30;;;;;;;14.32;8.23;;;6.60;96.70;;;;;;5081731;28;20059;-79
2024/01/24 01:16:39;;;;;;;11.00;7.88;;;6.60;96.70;;;;;;5068913;28;20696;-79
2024/01/24 01:19:07;;;;;;;10.18;7.28;;;6.60;96.70;;;;;;5081835;28;20048;-79
2024/01/24 01:22:18;;;;;;;12.90;8.07;;;6.70;96.70;;;;;;5086174;28;20062;-79
2024/01/24 01:24:27;;;;;;;10.57;7.85;;;6.60;96.70;;;;;;5079139;28;20060;-79
2024/01/24 01:26:57;;;;;;;10.25;6.85;;;6.60;96.70;;;;;;5088661;28;20056;-78
2024/01/24 01:29:26;;;;;;;10.73;7.25;;;6.60;96.70;;;;;;5087581;28;20051;-79
2024/01/24 01:32:09;;;;;;;12.05;7.43;;;6.50;96.70;;;;;;5084912;28;20052;-79
2024/01/24 01:34:38;;;;;;;11.30;7.03;;;6.60;96.70;;;;;;5071687;28;20049;-79
2024/01/24 01:37:07;;;;;;;10.73;6.63;;;6.50;96.70;;;;;;5091070;28;20825;-79
2024/01/24 01:39:43;;;;;;;11.00;7.20;;;6.50;96.70;;;;;;5083938;28;20074;-79
2024/01/24 01:42:19;;;;;;;10.73;7.22;;;6.50;96.70;;;;;;5075451;28;20055;-78
2024/01/24 01:46:04;;;;;;;;;;;;;;;;;;;;;
2024/01/24 01:48:58;;;;;;;9.18;6.82;;;6.60;96.70;;;;;;5080422;28;20083;-78
2024/01/24 01:51:30;;;;;;;10.40;7.32;;;6.50;96.70;;;;;;5086557;28;20044;-78
2024/01/24 01:54:04;;;;;;;11.77;7.68;;;6.50;96.70;;;;;;5091473;28;20059;-78
2024/01/24 01:56:33;;;;;;;11.85;7.50;;;6.40;96.70;;;;;;5069110;28;20083;-78
2024/01/24 01:59:05;;;;;;;13.90;7.65;;;6.30;96.70;;;;;;5081580;28;20533;-77
2024/01/24 02:01:33;;;;;;;10.63;7.38;;;6.30;96.70;;;;;;5073618;28;20714;-76
2024/01/24 02:04:02;;;;;;;8.85;6.63;;;6.20;96.70;;;;;;5083466;28;20053;-78
2024/01/24 02:06:31;;;;;;;10.85;6.93;;;6.30;96.70;;;;;;5070851;28;20052;-78
2024/01/24 02:09:00;;;;;;;6.57;5.63;;;6.30;96.70;;;;;;5080953;28;20052;-78
2024/01/24 02:11:32;;;;;;;8.57;6.03;;;6.20;96.70;;;;;;5084210;28;20698;-78
2024/01/24 02:14:00;;;;;;;8.57;5.80;;;6.20;96.70;;;;;;5078048;28;20121;-77
2024/01/24 02:16:33;;;;;;;7.13;5.18;;;6.20;96.70;;;;;;5070873;28;20048;-78
2024/01/24 02:19:12;;;;;;;8.15;6.43;;;6.10;96.70;;;;;;5085967;28;20637;-77
2024/01/24 02:22:09;;;;;;;7.80;5.70;;;6.20;96.70;;;;;;5083334;28;20067;-78
2024/01/24 02:24:41;;;;;;;11.30;6.68;;;6.20;96.70;;;;;;5074684;28;20500;-77
2024/01/24 02:27:14;;;;;;;6.68;5.20;;;6.20;96.70;;;;;;5080584;28;20060;-77
2024/01/24 02:29:45;;;;;;;7.35;5.47;;;6.30;96.70;;;;;;5084197;28;21328;-77
2024/01/24 02:32:14;;;;;;;7.88;5.72;;;6.30;96.70;;;;;;5083770;28;20505;-78
2024/01/24 02:34:43;;;;;;;7.60;5.03;;;6.30;96.70;;;;;;5081576;28;20048;-78
2024/01/24 02:37:11;;;;;;;9.43;5.80;;;6.30;96.70;;;;;;5087024;28;20137;-78
2024/01/24 02:39:43;;;;;;;6.32;5.07;;;6.30;96.70;;;;;;5072634;28;20494;-78
2024/01/24 02:42:12;;;;;;;7.45;5.63;;;6.20;96.70;;;;;;5080310;28;20783;-77
2024/01/24 02:44:41;;;;;;;8.43;5.90;;;6.20;96.70;;;;;;5083468;28;20382;-77
2024/01/24 02:47:13;;;;;;;6.30;5.68;;;6.10;96.70;;;;;;5083729;28;20594;-78
2024/01/24 02:49:42;;;;;;;6.85;5.60;;;6.10;96.70;;;;;;5068466;28;20552;-77
2024/01/24 02:52:10;;;;;;;6.85;5.53;;;6.00;96.70;;;;;;5077530;28;20052;-77
2024/01/24 02:54:49;;;;;;;6.97;5.57;;;5.90;96.70;;;;;;5085949;28;20048;-78
2024/01/24 02:57:38;;;;;;;5.75;5.00;;;6.00;96.70;;;;;;5030101;28;20057;-77
2024/01/24 03:00:18;;;;;;;7.68;6.18;;;5.90;96.70;;;;;;5043817;28;20080;-77
2024/01/24 03:02:51;;;;;;;7.38;6.00;;;5.90;96.70;;;;;;5044792;28;20067;-77
2024/01/24 03:05:19;;;;;;;7.68;5.55;;;5.90;96.70;;;;;;5044238;28;20910;-77
2024/01/24 03:07:50;;;;;;;8.05;6.45;;;5.90;96.70;;;;;;5026208;28;20053;-77
2024/01/24 03:10:21;;;;;;;9.20;6.10;;;5.90;96.70;;;;;;5043789;28;20572;-77
2024/01/24 03:12:49;;;;;;;11.55;6.55;;;5.90;96.70;;;;;;5044519;28;21416;-77
2024/01/24 03:15:18;;;;;;;11.93;6.88;;;5.90;96.70;;;;;;5044211;28;20106;-77
2024/01/24 03:17:46;;;;;;;11.77;7.00;;;5.90;96.70;;;;;;5043472;28;20154;-77
2024/01/24 03:20:16;;;;;;;13.80;7.38;;;5.80;96.70;;;;;;5019306;28;20048;-77
2024/01/24 03:22:48;;;;;;;10.82;6.68;;;5.90;96.70;;;;;;5042716;28;20053;-77
2024/01/24 03:28:31;;;;;;;11.52;6.57;;;5.90;96.70;;;;;;5018763;28;20064;-78
2024/01/24 03:31:03;;;;;;;11.48;7.47;;;5.80;96.70;;;;;;5074258;28;20040;-77
2024/01/24 03:33:31;;;;;;;9.50;6.50;;;5.80;96.70;;;;;;5063428;28;20122;-78
2024/01/24 03:36:00;;;;;;;9.27;6.50;;;5.70;96.70;;;;;;5086077;28;20409;-77
2024/01/24 03:39:43;;;;;;;9.65;6.13;;;5.70;96.70;;;;;;5075113;28;20059;-77
2024/01/24 03:42:13;;;;;;;;;;;5.80;96.70;;;;;;5079776;28;20059;-77
2024/01/24 03:44:46;;;;;;;17.83;7.57;;;5.80;96.70;;;;;;5081456;28;20339;-77
2024/01/24 03:47:15;;;;;;;8.50;5.47;;;5.80;96.70;;;;;;5073265;28;20056;-77
2024/01/24 03:49:44;;;;;;;8.20;5.70;;;5.70;96.70;;;;;;5081511;28;20608;-77
2024/01/24 03:52:12;;;;;;;8.98;5.68;;;5.80;96.70;;;;;;5072096;28;20647;-77
2024/01/24 03:54:41;;;;;;;8.32;5.38;;;5.80;96.70;;;;;;5085153;28;20055;-77
2024/01/24 03:57:10;;;;;;;9.00;6.35;;;5.70;96.70;;;;;;5072194;28;20133;-77
2024/01/24 03:59:40;;;;;;;9.70;6.88;;;5.60;96.70;;;;;;5083999;28;20040;-77
2024/01/24 04:02:16;;;;;;;8.75;6.03;;;5.40;96.70;;;;;;5083746;28;20498;-78
2024/01/24 04:04:45;;;;;;;9.35;6.50;;;5.40;96.70;;;;;;5083025;28;20838;-78
2024/01/24 04:07:14;;;;;;;8.27;6.20;;;5.30;96.70;;;;;;5080265;28;20060;-77
2024/01/24 04:09:45;;;;;;;7.95;6.57;;;5.30;96.70;;;;;;5082785;28;20050;-77
2024/01/24 04:12:18;;;;;;;7.85;5.63;;;5.40;96.70;;;;;;5080524;28;20059;-77
2024/01/24 04:14:50;;;;;;;8.15;5.93;;;5.30;96.70;;;;;;5076703;28;20079;-77
2024/01/24 04:17:53;;;;;;;9.38;5.75;;;5.40;96.70;;;;;;5083635;28;20432;-77
2024/01/24 04:20:22;;;;;;;7.95;5.78;;;5.40;96.70;;;;;;5069395;28;20102;-77
2024/01/24 04:22:51;;;;;;;6.72;5.47;;;5.30;96.70;;;;;;5083770;28;20556;-77
2024/01/24 04:25:46;;;;;;;9.27;6.80;;;5.30;96.70;;;;;;5084733;28;20603;-77
2024/01/24 04:28:19;;;;;;;10.93;5.60;;;5.20;96.70;;;;;;5079345;28;20433;-77
2024/01/24 04:30:48;;;;;;;8.18;5.82;;;5.20;96.70;;;;;;5066973;28;20143;-77
2024/01/24 04:33:18;;;;;;;9.35;5.50;;;5.20;96.70;;;;;;5075535;28;20135;-77
2024/01/24 04:35:51;;;;;;;8.48;5.95;;;5.20;96.70;;;;;;5071269;28;20080;-77
2024/01/24 04:39:24;;;;;;;10.05;6.18;;;5.20;96.70;;;;;;5076544;28;20912;-78
2024/01/24 04:42:21;;;;;;;10.07;5.97;;;5.20;96.70;;;;;;5081790;28;20138;-77
2024/01/24 04:44:52;;;;;;;9.75;6.13;;;5.20;96.70;;;;;;5083547;28;20523;-77
2024/01/24 04:47:21;;;;;;;9.05;5.68;;;5.30;96.70;;;;;;5079687;28;20143;-77
2024/01/24 04:49:51;;;;;;;9.30;6.65;;;5.30;96.70;;;;;;5075101;28;20524;-77
2024/01/24 04:52:35;;;;;;;8.95;6.22;;;5.30;96.70;;;;;;5084458;28;20056;-77
2024/01/24 04:55:11;;;;;;;9.68;6.25;;;5.30;96.70;;;;;;5091076;28;20071;-76
2024/01/24 04:57:40;;;;;;;9.73;6.28;;;5.30;96.70;;;;;;5073577;28;20059;-78
2024/01/24 05:00:11;;;;;;;10.23;6.85;;;5.30;96.70;;;;;;5076825;28;20040;-77
2024/01/24 05:03:06;;;;;;;10.20;6.70;;;5.30;96.70;;;;;;5084914;28;20611;-77
2024/01/24 05:05:38;;;;;;;8.35;6.63;;;5.50;96.70;;;;;;5066781;28;20062;-77
2024/01/24 05:08:11;;;;;;;10.18;6.32;;;5.50;96.70;;;;;;5088797;28;20110;-77
2024/01/24 05:10:41;;;;;;;10.30;6.55;;;5.60;96.70;;;;;;5085359;28;20569;-77
2024/01/24 05:13:13;;;;;;;12.18;7.40;;;5.70;96.70;;;;;;5082871;28;20062;-77
2024/01/24 05:15:42;;;;;;;11.35;7.10;;;5.70;96.70;;;;;;5069507;28;20082;-77
2024/01/24 05:21:22;;;;;;;10.07;6.35;;;5.70;96.70;;;;;;5067797;28;20048;-77
2024/01/24 05:23:52;;;;;;;8.18;6.32;;;5.70;96.70;;;;;;5078154;28;20451;-76
2024/01/24 05:26:27;;;;;;;9.38;6.40;;;5.70;96.70;;;;;;5084340;28;20127;-77
2024/01/24 05:28:56;;;;;;;10.10;6.45;;;5.80;96.70;;;;;;5074624;28;20052;-77
2024/01/24 05:31:25;;;;;;;7.88;5.85;;;5.80;96.70;;;;;;5082782;28;20056;-77
2024/01/24 05:33:55;;;;;;;9.63;6.85;;;5.90;96.70;;;;;;5087069;28;20114;-77
2024/01/24 05:36:25;;;;;;;8.43;5.63;;;5.90;96.70;;;;;;5080500;28;20131;-77
2024/01/24 05:38:59;;;;;;;9.45;6.63;;;6.00;96.70;;;;;;5071489;28;20068;-77
2024/01/24 05:41:48;;;;;;;10.95;6.43;;;5.90;96.70;;;;;;5072880;28;20489;-77
2024/01/24 05:44:16;;;;;;;9.68;6.07;;;5.90;96.70;;;;;;5079727;28;20047;-77
2024/01/24 05:46:57;;;;;;;7.93;6.13;;;5.90;96.70;;;;;;5085452;28;20503;-77
2024/01/24 05:49:47;;;;;;;10.52;6.72;;;5.90;96.70;;;;;;5080439;28;20113;-77
2024/01/24 05:52:17;;;;;;;16.25;9.73;;;6.00;96.70;;;;;;5069355;28;20524;-77
2024/01/24 05:54:48;;;;;;;19.08;11.55;;;6.00;96.70;;;;;;5085571;28;20076;-77
2024/01/24 05:57:16;;;;;;;16.38;9.82;;;6.00;96.70;;;;;;5074461;28;20505;-77
2024/01/24 05:59:45;;;;;;;12.70;8.18;;;6.00;96.70;;;;;;5074717;28;20131;-77
2024/01/24 06:02:14;;;;;;;11.77;6.95;;;6.00;96.70;;;;;;5084745;28;20131;-77
2024/01/24 06:04:44;;;;;;;11.40;7.65;;;6.00;96.70;;;;;;5072353;28;20056;-77
2024/01/24 06:07:18;;;;;;;13.90;8.43;;;6.10;96.70;;;;;;5087085;28;20109;-77
2024/01/24 06:09:47;;;;;;;11.80;7.55;;;6.10;96.70;;;;;;5092626;28;20101;-77
2024/01/24 06:12:19;;;;;;;12.50;6.78;;;6.10;96.70;;;;;;5084596;28;20048;-77
2024/01/24 06:15:07;;;;;;;9.60;5.90;;;6.10;96.70;;;;;;5078506;28;20059;-76
2024/01/24 06:17:39;;;;;;;10.48;6.40;;;6.20;96.70;;;;;;5034122;28;20056;-77
2024/01/24 06:20:09;;;;;;;11.70;6.20;;;6.20;96.70;;;;;;5083822;28;20559;-77
2024/01/24 06:22:43;;;;;;;7.50;6.00;;;6.20;96.70;;;;;;5086343;28;20600;-80
2024/01/24 06:25:14;;;;;;;8.85;6.22;;;6.20;96.70;;;;;;5086289;28;20109;-77
2024/01/24 06:27:45;;;;;;;9.32;6.38;;;6.10;96.70;;;;;;5053935;28;20060;-77
2024/01/24 06:30:14;;;;;;;9.30;5.97;;;6.20;96.70;;;;;;5084755;28;20053;-77
2024/01/24 06:32:54;;;;;;;9.00;5.85;;;6.20;96.70;;;;;;5087955;28;20072;-77
2024/01/24 06:35:22;;;;;;;9.68;6.40;;;6.30;96.70;;;;;;5086500;28;20143;-77
2024/01/24 06:37:52;;;;;;;8.05;6.28;;;6.40;96.70;;;;;;5080340;28;20078;-77
2024/01/24 06:40:24;;;;;;;11.48;6.97;;;6.40;96.70;;;;;;5078146;28;20105;-77
2024/01/24 06:42:56;;;;;;;16.58;8.07;;;6.40;96.70;;;;;;5087277;28;20083;-77
2024/01/24 06:45:26;;;;;;;10.05;6.10;;;6.40;96.70;;;;;;5063828;28;20056;-76
2024/01/24 06:47:54;;;;;;;10.45;7.03;;;6.40;96.70;;;;;;5084017;28;20519;-77
2024/01/24 06:50:24;;;;;;;9.00;5.90;;;6.30;96.70;;;;;;5075874;28;20064;-77
2024/01/24 06:52:59;;;;;;;8.75;5.30;;;6.30;96.70;;;;;;5080077;28;20040;-77
2024/01/24 06:55:29;;;;;;;9.95;5.80;;;6.30;96.70;;;;;;5078013;28;20587;-76
2024/01/24 06:58:01;;;;;;;8.63;5.00;;;6.40;96.70;;;;;;5080695;28;20052;-76
2024/01/24 07:00:34;;;;;;;8.75;5.28;;;6.40;96.70;;;;;;5079968;28;20052;-77
2024/01/24 07:03:41;;;;;;;9.65;4.68;;;6.40;96.70;;;;;;5072705;28;20125;-78
2024/01/24 07:06:11;;;;;;;9.52;5.30;;;6.40;96.70;;;;;;5084959;28;20101;-80
2024/01/24 07:08:41;;;;;;;8.38;4.78;;;6.50;96.70;;;;;;5082170;28;20136;-79
2024/01/24 07:11:10;;;;;;;9.80;4.68;;;6.50;96.70;;;;;;5086057;28;20056;-77
2024/01/24 07:14:06;;;;;;;8.63;5.22;;;6.60;96.70;;;;;;5085950;28;20105;-78
2024/01/24 07:16:38;;;;;;;6.60;4.45;;;6.50;96.70;;;;;;5085537;28;20083;-78
2024/01/24 07:19:07;;;;;;;7.65;4.60;;;6.50;96.70;;;;;;5068695;28;20051;-78
2024/01/24 07:21:37;;;;;;;6.70;4.93;;;6.40;96.70;;;;;;5082849;28;20525;-78
2024/01/24 07:24:23;;;;;;;9.88;5.07;;;6.50;96.70;;;;;;5077552;28;20059;-78
2024/01/24 07:26:54;;;;;;;8.20;4.95;;;6.60;96.70;;;;;;5082168;28;20102;-78
2024/01/24 07:29:23;;;;;;;9.50;5.25;;;6.60;96.70;;;;;;5066295;28;20066;-78
2024/01/24 07:31:52;;;;;;;8.13;5.05;;;6.70;96.70;;;;;;5067722;28;20040;-77
2024/01/24 07:34:21;;;;;;;8.98;4.90;;;6.70;96.70;;;;;;5091669;28;20456;-77
2024/01/24 07:36:49;;;;;;;6.57;4.30;;;6.70;96.70;;;;;;5084344;28;20140;-78
2024/01/24 07:39:19;;;;;;;27.95;17.60;;;6.70;96.70;;;;;;5085882;28;20055;-78
2024/01/24 07:41:48;;;;;;;22.48;15.10;;;6.80;96.70;;;;;;5077932;28;20155;-77
2024/01/24 07:44:17;;;;;;;11.77;7.47;;;6.90;96.70;;;;;;5083075;28;20496;-78
2024/01/24 07:46:45;;;;;;;8.73;5.70;;;6.90;96.70;;;;;;5083141;28;20142;-77
2024/01/24 07:49:14;;;;;;;8.25;5.65;;;6.90;96.70;;;;;;5082518;28;20048;-78
2024/01/24 07:51:46;;;;;;;9.00;5.70;;;6.90;96.70;;;;;;5084920;28;20394;-77
2024/01/24 07:54:18;;;;;;;7.78;5.68;;;7.00;96.70;;;;;;5076477;28;20129;-77
2024/01/24 07:56:47;;;;;;;7.15;4.97;;;7.00;96.70;;;;;;5077886;28;20444;-78
2024/01/24 07:59:17;;;;;;;6.35;5.38;;;7.00;96.70;;;;;;5083785;28;20056;-76
2024/01/24 08:01:46;;;;;;;10.75;5.35;;;7.10;96.70;;;;;;5084444;28;20052;-77
2024/01/24 08:04:16;;;;;;;7.68;5.28;;;7.20;96.70;;;;;;5085067;28;20059;-77
2024/01/24 08:06:47;;;;;;;7.72;5.18;;;7.30;96.70;;;;;;5084763;28;20744;-77
2024/01/24 08:09:19;;;;;;;6.53;5.13;;;7.30;96.70;;;;;;5065833;28;20134;-77
2024/01/24 08:11:47;;;;;;;6.65;4.50;;;7.40;96.70;;;;;;5067537;28;20159;-77
2024/01/24 08:14:18;;;;;;;5.90;4.63;;;7.40;96.70;;;;;;5083114;28;20052;-77
2024/01/24 08:17:01;;;;;;;6.43;4.45;;;7.50;96.70;;;;;;5076208;28;20053;-76
2024/01/24 08:19:29;;;;;;;7.15;4.97;;;7.60;96.70;;;;;;5079475;28;20062;-76
2024/01/24 08:21:58;;;;;;;7.20;4.72;;;7.60;96.70;;;;;;5082128;28;20500;-76
2024/01/24 08:24:28;;;;;;;8.73;4.70;;;7.60;96.70;;;;;;5082313;28;20052;-76
2024/01/24 08:26:58;;;;;;;7.78;5.00;;;7.70;96.70;;;;;;5075869;28;20627;-76
2024/01/24 08:29:37;;;;;;;8.55;4.53;;;7.70;96.70;;;;;;5078278;28;20520;-76
2024/01/24 08:32:06;;;;;;;9.02;4.63;;;7.70;96.70;;;;;;5083894;28;20059;-77
2024/01/24 08:34:38;;;;;;;6.10;4.95;;;7.80;96.70;;;;;;5073917;28;20052;-76
2024/01/24 08:37:31;;;;;;;7.18;6.20;;;7.80;96.70;;;;;;5085605;28;20584;-76
2024/01/24 08:40:05;;;;;;;7.80;5.22;;;7.80;96.70;;;;;;5012427;28;20068;-76
2024/01/24 08:42:41;;;;;;;10.18;5.35;;;7.70;96.70;;;;;;5031120;28;20049;-76
2024/01/24 08:45:10;;;;;;;10.82;5.22;;;7.80;96.70;;;;;;5023026;28;20652;-77
2024/01/24 08:47:38;;;;;;;5.90;4.78;;;7.80;96.70;;;;;;5006656;28;20444;-77
2024/01/24 08:50:08;;;;;;;7.22;4.53;;;7.90;96.70;;;;;;5023326;28;20884;-77
2024/01/24 08:52:38;;;;;;;8.48;5.05;;;7.90;96.70;;;;;;5023255;28;20061;-77
2024/01/24 08:55:13;;;;;;;5.85;4.70;;;7.90;96.70;;;;;;5020498;28;20849;-76
2024/01/24 08:57:43;;;;;;;8.15;4.95;;;8.10;96.70;;;;;;5007168;28;20061;-77
2024/01/24 09:00:16;;;;;;;8.32;5.20;;;8.10;96.70;;;;;;5023513;28;20092;-77
2024/01/24 09:02:46;;;;;;;7.47;5.43;;;8.20;96.70;;;;;;5022786;28;20192;-77
2024/01/24 09:05:19;;;;;;;9.20;4.63;;;8.20;96.70;;;;;;5014780;28;20084;-77
2024/01/24 09:07:50;;;;;;;8.60;4.82;;;8.30;96.70;;;;;;5006972;28;20106;-76
2024/01/24 09:10:21;;;;;;;8.93;6.20;;;8.30;96.70;;;;;;5044374;28;20079;-77
2024/01/24 09:13:13;;;;;;;11.00;6.30;;;8.40;96.70;;;;;;5076209;28;20075;-76
2024/01/24 09:15:42;;;;;;;11.45;6.25;;;8.50;96.70;;;;;;5070215;28;20058;-77
2024/01/24 09:18:12;;;;;;;8.82;6.13;;;8.50;96.70;;;;;;5077066;28;20048;-76
2024/01/24 09:21:26;;;;;;;10.73;5.90;;;8.50;96.70;;;;;;5062403;28;20547;-76
2024/01/24 09:23:56;;;;;;;8.68;5.22;;;8.40;96.70;;;;;;5066750;28;20048;-77
2024/01/24 09:26:52;;;;;;;7.13;5.22;;;8.50;96.70;;;;;;5066525;28;20048;-77
2024/01/24 09:29:30;;;;;;;9.90;5.05;;;8.50;96.70;;;;;;5082891;28;20056;-77
2024/01/24 09:31:59;;;;;;;11.50;6.88;;;8.60;96.70;;;;;;5069036;28;20076;-77
2024/01/24 09:34:28;;;;;;;11.27;6.78;;;8.70;96.70;;;;;;5083724;28;20623;-77
2024/01/24 09:36:58;;;;;;;10.73;7.75;;;8.90;96.70;;;;;;5084267;28;20056;-78
2024/01/24 09:39:28;;;;;;;13.60;8.40;;;9.00;96.70;;;;;;5070062;28;20056;-78
2024/01/24 09:42:01;;;;;;;11.82;8.68;;;9.00;96.70;;;;;;5082915;28;20501;-78
2024/01/24 09:44:32;;;;;;;11.65;7.55;;;9.00;96.70;;;;;;5081191;28;20056;-77
2024/01/24 09:47:02;;;;;;;12.63;8.65;;;9.10;96.70;;;;;;5086490;28;20097;-77
2024/01/24 09:49:32;;;;;;;10.95;6.75;;;9.10;96.70;;;;;;5087424;28;20067;-77
2024/01/24 09:52:03;;;;;;;8.85;6.20;;;9.20;96.70;;;;;;5084922;28;20056;-77
2024/01/24 09:54:32;;;;;;;8.77;6.35;;;9.40;96.70;;;;;;5070849;28;20087;-77
2024/01/24 09:57:05;;;;;;;11.10;5.95;;;9.50;96.70;;;;;;5087872;28;20467;-77
2024/01/24 09:59:35;;;;;;;9.23;5.40;;;9.70;96.70;;;;;;5078445;28;20052;-78
2024/01/24 10:02:06;;;;;;;8.65;5.93;;;9.70;96.70;;;;;;5079578;28;20060;-78
2024/01/24 10:04:37;;;;;;;12.48;5.78;;;9.70;96.70;;;;;;5075276;28;20060;-77
2024/01/24 10:07:10;;;;;;;10.70;6.93;;;9.70;96.70;;;;;;5081178;28;20060;-77
2024/01/24 10:09:40;;;;;;;8.65;5.70;;;9.80;96.70;;;;;;5078309;28;20047;-77
2024/01/24 10:12:11;;;;;;;9.20;6.38;;;9.90;96.70;;;;;;5078217;28;20135;-77
2024/01/24 10:14:43;;;;;;;8.05;5.43;;;9.90;96.70;;;;;;5076808;28;20505;-78
2024/01/24 10:17:13;;;;;;;8.60;6.03;;;9.90;96.70;;;;;;5083149;28;20062;-77
2024/01/24 10:19:42;;;;;;;12.98;6.00;;;9.90;96.70;;;;;;5074562;28;20098;-78
2024/01/24 10:22:16;;;;;;;8.80;6.47;;;9.90;96.70;;;;;;5087105;28;20068;-77
2024/01/24 10:24:45;;;;;;;10.30;6.53;;;9.90;96.70;;;;;;5068278;28;21159;-77
2024/01/24 10:27:16;;;;;;;11.60;6.90;;;9.90;96.70;;;;;;5070614;28;20049;-77
2024/01/24 10:29:45;;;;;;;10.43;7.43;;;10.00;96.70;;;;;;5077707;28;20066;-77
2024/01/24 10:32:14;;;;;;;8.82;6.57;;;10.00;96.70;;;;;;5068823;28;20094;-77
2024/01/24 10:34:43;;;;;;;12.30;7.68;;;10.00;96.70;;;;;;5085344;28;20059;-77
2024/01/24 10:37:12;;;;;;;9.00;6.10;;;10.00;96.70;;;;;;5080141;28;20497;-77
2024/01/24 10:39:41;;;;;;;8.82;7.10;;;10.00;96.70;;;;;;5065210;28;20056;-77
2024/01/24 10:42:13;;;;;;;8.82;6.90;;;10.10;96.70;;;;;;5090819;28;20535;-77
2024/01/24 10:44:50;;;;;;;11.55;7.28;;;10.10;96.70;;;;;;5078392;28;20136;-77
2024/01/24 10:47:21;;;;;;;11.38;6.88;;;10.10;96.70;;;;;;5085757;28;20122;-76
2024/01/24 10:49:51;;;;;;;9.13;6.80;;;10.10;96.70;;;;;;5077246;28;20060;-77
2024/01/24 10:52:21;;;;;;;11.68;7.30;;;10.20;96.70;;;;;;5050645;28;20048;-77
2024/01/24 10:55:01;;;;;;;12.60;7.28;;;10.20;96.70;;;;;;5059348;28;20079;-77
2024/01/24 10:57:32;;;;;;;11.63;6.90;;;10.10;96.70;;;;;;5065192;28;20052;-77
2024/01/24 11:00:05;;;;;;;9.15;7.35;;;10.10;96.70;;;;;;5056323;28;20067;-77
2024/01/24 11:02:34;;;;;;;9.38;7.10;;;10.00;96.70;;;;;;5062743;28;20074;-76
2024/01/24 11:05:06;;;;;;;14.32;9.95;;;10.10;96.70;;;;;;5049583;28;20060;-76
2024/01/24 11:08:12;;;;;;;9.97;8.03;;;10.20;96.70;;;;;;5059170;28;20064;-77
2024/01/24 11:10:43;;;;;;;11.63;7.63;;;10.30;96.70;;;;;;5063427;28;20063;-77
2024/01/24 11:13:15;;;;;;;12.82;8.18;;;10.30;96.70;;;;;;5071871;28;20117;-77
2024/01/24 11:15:46;;;;;;;13.25;8.68;;;10.20;96.70;;;;;;5064937;28;20060;-77
2024/01/24 11:18:21;;;;;;;12.90;9.38;;;10.20;96.70;;;;;;5058701;28;20060;-77
2024/01/24 11:20:53;;;;;;;11.07;8.63;;;10.20;96.70;;;;;;5059276;28;20288;-76
2024/01/24 11:23:38;;;;;;;13.48;9.38;;;10.20;96.70;;;;;;5060530;28;20044;-76
2024/01/24 11:26:09;;;;;;;14.77;9.50;;;10.20;96.70;;;;;;5059655;28;20057;-77
2024/01/24 11:28:39;;;;;;;13.45;9.70;;;10.30;96.70;;;;;;5060597;28;20110;-76
2024/01/24 11:31:10;;;;;;;13.55;9.38;;;10.30;96.70;;;;;;5055631;28;20061;-77
2024/01/24 11:34:09;;;;;;;12.00;8.88;;;10.30;96.70;;;;;;5057769;28;20748;-76
2024/01/24 11:36:46;;;;;;;13.43;9.02;;;10.40;96.70;;;;;;5045797;28;20052;-76
2024/01/24 11:39:35;;;;;;;14.23;8.15;;;10.50;96.70;;;;;;5059196;28;20152;-77
2024/01/24 11:45:45;;;;;;;15.70;9.35;;;10.70;96.70;;;;;;5015526;28;20147;-77
2024/01/24 11:48:16;;;;;;;12.00;9.65;;;10.70;96.70;;;;;;5022241;28;20132;-77
2024/01/24 11:50:48;;;;;;;13.55;9.32;;;10.70;96.70;;;;;;5057835;28;20056;-76
2024/01/24 11:53:34;;;;;;;14.82;8.98;;;10.70;96.70;;;;;;5053595;28;20789;-81
2024/01/24 11:56:05;;;;;;;12.90;10.02;;;10.80;96.70;;;;;;5050824;28;20056;-77
2024/01/24 11:58:38;;;;;;;20.88;10.27;;;10.90;96.70;;;;;;5064437;28;20058;-77
2024/01/24 12:01:09;;;;;;;13.02;9.15;;;11.00;96.70;;;;;;5061052;28;20056;-76
2024/01/24 12:03:46;;;;;;;12.85;9.43;;;11.00;96.70;;;;;;5067922;28;20048;-77
2024/01/24 12:06:19;;;;;;;11.13;8.98;;;11.10;96.70;;;;;;5065477;28;20681;-78
2024/01/24 12:08:48;;;;;;;13.75;9.02;;;11.00;96.70;;;;;;5055813;28;20343;-78
2024/01/24 12:11:20;;;;;;;12.88;9.27;;;11.00;96.70;;;;;;5061149;28;20064;-76
2024/01/24 12:13:50;;;;;;;14.50;9.00;;;11.10;96.70;;;;;;5059206;28;20171;-77
2024/01/24 12:16:31;;;;;;;13.65;9.38;;;11.10;96.70;;;;;;5070942;28;20134;-78
2024/01/24 12:19:19;;;;;;;12.95;8.73;;;11.20;96.70;;;;;;5057245;28;20060;-76
2024/01/24 12:21:49;;;;;;;13.35;8.88;;;11.20;96.70;;;;;;5061119;28;20699;-77
2024/01/24 12:24:22;;;;;;;14.65;9.52;;;11.30;96.70;;;;;;5073711;28;20060;-77
2024/01/24 12:27:06;;;;;;;15.95;9.48;;;11.20;96.70;;;;;;5055736;28;20048;-77
2024/01/24 12:29:36;;;;;;;15.10;9.23;;;11.20;96.70;;;;;;5058100;28;20595;-77
2024/01/24 12:32:14;;;;;;;14.43;9.07;;;11.20;96.70;;;;;;5059568;28;20052;-77
2024/01/24 12:34:53;;;;;;;14.43;11.50;;;11.10;96.70;;;;;;5061641;28;20056;-77
2024/01/24 12:37:36;;;;;;;11.38;9.43;;;11.20;96.70;;;;;;5064040;28;20052;-77
2024/01/24 12:40:09;;;;;;;12.68;9.52;;;11.20;96.70;;;;;;5065668;28;20135;-78
2024/01/24 12:42:39;;;;;;;12.32;9.95;;;11.20;96.70;;;;;;5071336;28;20052;-77
2024/01/24 12:45:11;;;;;;;16.52;10.40;;;11.20;96.70;;;;;;5069553;28;20051;-77
2024/01/24 12:47:50;;;;;;;14.00;11.35;;;11.20;96.70;;;;;;5071158;28;20056;-77
2024/01/24 12:50:29;;;;;;;14.32;11.25;;;11.20;96.70;;;;;;5077756;28;20131;-77
2024/01/24 12:53:16;;;;;;;27.90;18.98;;;11.20;96.70;;;;;;5077366;28;20055;-77
2024/01/24 12:55:45;;;;;;;20.65;15.82;;;11.10;96.70;;;;;;5067350;28;20108;-77
2024/01/24 12:58:15;;;;;;;26.13;16.60;;;11.20;96.70;;;;;;5091567;28;20150;-76
2024/01/24 13:00:44;;;;;;;19.55;13.40;;;11.20;96.70;;;;;;5082744;28;20071;-79
2024/01/24 13:03:14;;;;;;;15.95;12.50;;;11.20;96.70;;;;;;5084802;28;20052;-79
2024/01/24 13:05:47;;;;;;;19.45;12.85;;;11.30;96.70;;;;;;5064103;28;20059;-75
2024/01/24 13:08:20;;;;;;;16.95;12.23;;;11.30;96.70;;;;;;5071551;28;20631;-78
2024/01/24 13:10:54;;;;;;;18.08;12.30;;;11.30;96.70;;;;;;5076456;28;20486;-77
2024/01/24 13:13:27;;;;;;;15.55;12.23;;;11.40;96.70;;;;;;5070065;28;20059;-77
2024/01/24 13:15:59;;;;;;;18.30;12.13;;;11.40;96.70;;;;;;5083217;28;20147;-77
2024/01/24 13:18:33;;;;;;;16.13;11.00;;;11.50;96.70;;;;;;5078932;28;20485;-77
2024/01/24 13:21:04;;;;;;;16.45;11.35;;;11.60;96.70;;;;;;5086357;28;20052;-79
2024/01/24 13:27:54;;;;;;;13.30;9.93;;;11.70;96.70;;;;;;5029841;28;20126;-76
2024/01/24 13:30:23;;;;;;;;;;;11.80;96.70;;;;;;5037191;28;20222;-78
2024/01/24 13:32:53;;;;;;;14.93;10.32;;;11.90;96.70;;;;;;5095673;28;19928;-77
2024/01/24 13:35:25;;;;;;;16.05;9.93;;;11.90;96.70;;;;;;5088361;28;20439;-78
2024/01/24 13:37:58;;;;;;;14.63;10.45;;;11.90;96.70;;;;;;5088854;28;20087;-78